Dukedom, TN (38226)

03:03 CST le 24 janvier 2017 (GMT -0600)
Young Farm | | Change Station

Alt. 0 ft 36.49 °N, 88.71 °W | Updated 3 seconds ago

Partiellement nuageux
Partiellement nuageux
39.6 ° F
Paraît 40 ° F
N
0.0
Vent Variable Vent de NNE
Gusts 0.7 mph

Aujourd'hui
Haut(e) -- | Bas -- ° F
--% Risque de précip.
Hier
Haut(e) -- | Bas -- ° F
Precip. -- pouce
Pression 29.89 pouce
Visibilité 10.0 Miles terrestres
Nuages Couvert 1800 ft
Refroidissement éolien 40 ° F
Point de rosée 38 ° F
Humidité 94%
Précipitations 0.00 pouce
Profondeur de la couche neigeuse Non disponible.
7:01 AM 5:12 PM
Lune descendante, 13% visible
METAR KM25 240915Z AUTO 34004KT 10SM OVC018 04/01 A2989 RMK AO2
Pression 29.89 pouce
Visibilité 10.0 Miles terrestres
Nuages Couvert 1800 ft
Refroidissement éolien 40 ° F
Point de rosée 38 ° F
Humidité 94%
Précipitations 0.00 pouce
Profondeur de la couche neigeuse Non disponible.
7:01 AM 5:12 PM
Lune descendante, 13% visible
METAR KM25 240915Z AUTO 34004KT 10SM OVC018 04/01 A2989 RMK AO2

Get Your Daily Forecast Email!

Thanks for signing up!

Be on the lookout for a verification email in your inbox.

You'll start receiving the daily forecast at 8 AM.

×

10-Day Weather Forecast

Almanac

Astronomie

Jan. 24, 2017 Lever Coucher
Temps réel
Crépuscule civil
Crépuscule nautique
Crépuscule astronomique
Lune
Durée de lumière visible
Longueur du jour
Tomorrow will be .
, % of the Moon is Illuminated

Extrêmes aujourd'hui

State Highs State Lows

Community

WunderPhotos

Upload Photos

1,962,540 Photos téléchargées !

WunderBlog® & News

Nearby

Qualité de l'air

  Qualité de l'air Indice de la qualité de l'air Polluant
Not available.

Épaisseur de neige

Station Depth Altitude

Activité sismique

Ville Distance Mag. Time & Date
Minimum magnitude displayed is 2.5.

Températures des eaux côtières

Lieu Température

Stations

Stations météo à proximité

Emplacement de la station Température Refroidissement éolien Point de rosée Humidité Vent Precip. Alt. Mise à jour Type
                   

Watches & Warnings

There are currently no watches in effect.